Time;durP1;ratioP1;P1;durP2;ratioP2;P2;SDS_P1;SDS_P2;PMS_P1;PMS_P2;Temp;Humidity;BMP_temperature;BMP_pressure;BME280_temperature;BME280_humidity;BME280_pressure;Samples;Min_cycle;Max_cycle;Signal;HPM_P1;HPM_P2
2023/03/19 00:01:04;;;;;;;16.37;8.30;;;10.70;99.90;;;;;;4137662;28;20931;-76
2023/03/19 00:03:06;;;;;;;14.20;7.83;;;10.70;99.90;;;;;;4138344;28;20286;-75
2023/03/19 00:05:09;;;;;;;15.97;8.33;;;10.60;99.90;;;;;;4138773;28;20233;-77
2023/03/19 00:07:12;;;;;;;17.03;8.57;;;10.70;99.90;;;;;;4152623;28;20209;-76
2023/03/19 00:09:14;;;;;;;16.30;8.40;;;10.70;99.90;;;;;;4138319;28;20635;-76
2023/03/19 00:11:16;;;;;;;14.23;8.37;;;10.70;99.90;;;;;;4138018;28;20318;-77
2023/03/19 00:13:19;;;;;;;14.57;8.30;;;10.60;99.90;;;;;;4143394;28;20650;-75
2023/03/19 00:15:21;;;;;;;12.60;7.43;;;10.60;99.90;;;;;;4136751;28;20254;-76
2023/03/19 00:17:23;;;;;;;15.70;8.37;;;10.60;99.90;;;;;;4153060;28;20297;-77
2023/03/19 00:19:25;;;;;;;16.40;8.70;;;10.60;99.90;;;;;;4137033;28;20216;-77
2023/03/19 00:21:31;;;;;;;18.50;8.37;;;10.60;99.90;;;;;;4140769;28;20222;-77
2023/03/19 00:23:35;;;;;;;14.70;7.83;;;10.60;99.90;;;;;;4135560;28;20216;-77
2023/03/19 00:25:37;;;;;;;14.43;8.27;;;10.60;99.90;;;;;;4138251;28;20704;-76
2023/03/19 00:27:38;;;;;;;14.17;7.57;;;10.60;99.90;;;;;;4136124;28;20269;-73
2023/03/19 00:29:41;;;;;;;16.50;8.10;;;10.60;99.90;;;;;;4155615;28;20272;-77
2023/03/19 00:31:43;;;;;;;13.37;7.33;;;10.60;99.90;;;;;;4139222;28;20231;-73
2023/03/19 00:33:45;;;;;;;15.80;7.67;;;10.60;99.90;;;;;;4136356;28;20219;-73
2023/03/19 00:35:47;;;;;;;17.10;8.00;;;10.60;99.90;;;;;;4141412;28;20586;-74
2023/03/19 00:37:49;;;;;;;14.10;7.90;;;10.60;99.90;;;;;;4138700;28;20631;-74
2023/03/19 00:39:52;;;;;;;15.33;7.53;;;10.60;99.90;;;;;;4138489;28;20265;-75
2023/03/19 00:41:54;;;;;;;16.87;8.00;;;10.60;99.90;;;;;;4139102;28;20289;-73
2023/03/19 00:44:00;;;;;;;14.83;7.80;;;10.60;99.90;;;;;;4142355;28;20299;-73
2023/03/19 00:46:02;;;;;;;15.90;8.43;;;10.60;99.90;;;;;;4136119;28;20238;-73
2023/03/19 00:48:05;;;;;;;15.37;8.00;;;10.60;99.90;;;;;;4150237;28;20215;-73
2023/03/19 00:50:11;;;;;;;13.70;7.60;;;10.60;99.90;;;;;;4133161;28;20208;-74
2023/03/19 00:52:13;;;;;;;18.63;8.03;;;10.60;99.90;;;;;;4133640;28;20282;-73
2023/03/19 00:54:15;;;;;;;15.33;7.27;;;10.60;99.90;;;;;;4138589;28;20287;-73
2023/03/19 00:56:21;;;;;;;14.27;7.10;;;10.60;99.90;;;;;;4134628;28;20219;-73
2023/03/19 00:58:23;;;;;;;13.57;7.73;;;10.60;99.90;;;;;;4135424;28;20236;-73
2023/03/19 01:00:24;;;;;;;14.07;7.90;;;10.60;99.90;;;;;;4140243;28;20235;-73
2023/03/19 01:02:27;;;;;;;11.93;7.27;;;10.60;99.90;;;;;;4134580;28;20621;-77
2023/03/19 01:04:29;;;;;;;14.67;7.77;;;10.60;99.90;;;;;;4137944;28;20220;-76
2023/03/19 01:06:31;;;;;;;14.47;7.73;;;10.60;99.90;;;;;;4136501;28;20253;-77
2023/03/19 01:08:33;;;;;;;13.83;7.20;;;10.60;99.90;;;;;;4137276;28;20573;-76
2023/03/19 01:10:35;;;;;;;13.10;7.03;;;10.60;99.90;;;;;;4136135;28;20265;-77
2023/03/19 01:12:39;;;;;;;16.10;7.40;;;10.60;99.90;;;;;;4136394;28;20646;-76
2023/03/19 01:14:41;;;;;;;14.10;7.27;;;10.60;99.90;;;;;;4137158;28;20266;-77
2023/03/19 01:16:43;;;;;;;12.47;7.43;;;10.60;99.90;;;;;;4137399;28;20265;-77
2023/03/19 01:18:46;;;;;;;14.13;7.77;;;10.60;99.90;;;;;;4136626;28;20261;-77
2023/03/19 01:20:48;;;;;;;15.27;7.63;;;10.60;99.90;;;;;;4148406;28;20704;-77
2023/03/19 01:22:50;;;;;;;16.83;7.53;;;10.60;99.90;;;;;;4134533;28;20306;-77
2023/03/19 01:24:53;;;;;;;15.40;7.27;;;10.60;99.90;;;;;;4136491;28;20290;-75
2023/03/19 01:26:54;;;;;;;14.77;7.20;;;10.60;99.90;;;;;;4134253;28;20222;-76
2023/03/19 01:28:58;;;;;;;15.43;7.83;;;10.60;99.90;;;;;;4133988;28;20223;-76
2023/03/19 01:31:00;;;;;;;14.90;7.83;;;10.60;99.90;;;;;;4133132;28;20743;-77
2023/03/19 01:33:02;;;;;;;15.23;7.43;;;10.60;99.90;;;;;;4133759;28;20230;-75
2023/03/19 01:35:05;;;;;;;13.87;7.80;;;10.60;99.90;;;;;;4139592;28;20223;-75
2023/03/19 01:37:08;;;;;;;15.50;7.47;;;10.60;99.90;;;;;;4134100;28;20592;-76
2023/03/19 01:39:10;;;;;;;14.83;7.30;;;10.60;99.90;;;;;;4136983;28;20214;-76
2023/03/19 01:41:12;;;;;;;11.70;7.27;;;10.60;99.90;;;;;;4135373;28;20232;-76
2023/03/19 01:43:19;;;;;;;14.37;7.63;;;10.60;99.90;;;;;;4135611;28;20204;-77
2023/03/19 01:45:34;;;;;;;12.20;7.03;;;10.50;99.90;;;;;;4138934;28;20619;-77
2023/03/19 01:47:38;;;;;;;15.33;7.50;;;10.60;99.90;;;;;;4134882;28;20832;-77
2023/03/19 01:49:41;;;;;;;15.43;7.93;;;10.60;99.90;;;;;;4135055;28;20223;-76
2023/03/19 01:51:45;;;;;;;13.43;7.40;;;10.60;99.90;;;;;;4135081;28;20626;-76
2023/03/19 01:53:50;;;;;;;17.83;8.40;;;10.60;99.90;;;;;;4134440;28;20246;-76
2023/03/19 01:55:56;;;;;;;17.67;8.40;;;10.60;99.90;;;;;;4135522;28;20715;-77
2023/03/19 01:57:58;;;;;;;15.50;8.43;;;10.60;99.90;;;;;;4135013;28;20208;-77
2023/03/19 02:00:05;;;;;;;17.50;8.17;;;10.50;99.90;;;;;;4137543;28;20681;-77
2023/03/19 02:02:15;;;;;;;16.00;8.00;;;10.50;99.90;;;;;;4133781;28;20268;-76
2023/03/19 02:04:17;;;;;;;15.00;8.10;;;10.50;99.90;;;;;;4136791;28;20657;-76
2023/03/19 02:06:20;;;;;;;17.53;8.57;;;10.50;99.90;;;;;;4138300;28;20219;-77
2023/03/19 02:08:24;;;;;;;13.63;7.37;;;10.50;99.90;;;;;;4135029;28;20270;-77
2023/03/19 02:10:29;;;;;;;15.80;7.60;;;10.40;99.90;;;;;;4134401;28;20254;-77
2023/03/19 02:12:31;;;;;;;13.87;7.37;;;10.50;99.90;;;;;;4138708;28;20265;-77
2023/03/19 02:14:33;;;;;;;14.93;7.60;;;10.50;99.90;;;;;;4140400;28;20223;-77
2023/03/19 02:16:35;;;;;;;15.53;7.77;;;10.50;99.90;;;;;;4142666;28;20973;-77
2023/03/19 02:18:39;;;;;;;14.40;7.63;;;10.50;99.90;;;;;;4137333;28;20220;-77
2023/03/19 02:20:47;;;;;;;14.60;8.03;;;10.50;99.90;;;;;;4141656;28;21068;-76
2023/03/19 02:23:00;;;;;;;17.20;8.73;;;10.50;99.90;;;;;;4142338;28;20578;-77
2023/03/19 02:25:06;;;;;;;17.43;8.00;;;10.50;99.90;;;;;;4140420;28;20221;-76
2023/03/19 02:27:10;;;;;;;16.80;7.47;;;10.40;99.90;;;;;;4140768;28;20400;-76
2023/03/19 02:29:12;;;;;;;15.00;7.83;;;10.40;99.90;;;;;;4140065;28;20341;-76
2023/03/19 02:31:15;;;;;;;12.80;7.03;;;10.40;99.90;;;;;;4139149;28;20263;-77
2023/03/19 02:33:21;;;;;;;15.47;7.50;;;10.40;99.90;;;;;;4137546;28;20717;-76
2023/03/19 02:35:23;;;;;;;13.37;7.10;;;10.40;99.90;;;;;;4136982;28;20221;-77
2023/03/19 02:37:28;;;;;;;13.93;7.40;;;10.40;99.90;;;;;;4139160;28;20215;-76
2023/03/19 02:39:34;;;;;;;15.13;7.83;;;10.40;99.90;;;;;;4139606;28;20749;-77
2023/03/19 02:41:38;;;;;;;15.10;7.50;;;10.40;99.90;;;;;;4137213;28;20793;-77
2023/03/19 02:43:42;;;;;;;14.83;7.33;;;10.40;99.90;;;;;;4140024;28;20314;-75
2023/03/19 02:45:44;;;;;;;13.30;7.40;;;10.30;99.90;;;;;;4137578;28;20214;-77
2023/03/19 02:47:46;;;;;;;13.40;7.63;;;10.40;99.90;;;;;;4140086;28;20319;-75
2023/03/19 02:49:48;;;;;;;13.50;7.57;;;10.40;99.90;;;;;;4135380;28;20283;-77
2023/03/19 02:51:50;;;;;;;15.13;7.57;;;10.30;99.90;;;;;;4136274;28;20236;-77
2023/03/19 02:53:52;;;;;;;13.93;7.30;;;10.30;99.90;;;;;;4135124;28;20254;-75
2023/03/19 02:55:54;;;;;;;11.83;7.10;;;10.30;99.90;;;;;;4139551;28;20673;-76
2023/03/19 02:57:56;;;;;;;12.57;7.57;;;10.30;99.90;;;;;;4137150;28;20229;-76
2023/03/19 02:59:59;;;;;;;13.10;7.20;;;10.30;99.90;;;;;;4138653;28;20214;-77
2023/03/19 03:02:01;;;;;;;13.00;7.60;;;10.30;99.90;;;;;;4140893;28;20811;-75
2023/03/19 03:04:04;;;;;;;12.87;6.90;;;10.30;99.90;;;;;;4139024;28;20269;-76
2023/03/19 03:06:07;;;;;;;14.47;6.80;;;10.30;99.90;;;;;;4139194;28;20216;-77
2023/03/19 03:08:09;;;;;;;14.63;6.80;;;10.60;99.90;;;;;;4139161;28;20220;-77
2023/03/19 03:10:11;;;;;;;15.30;7.73;;;10.30;99.90;;;;;;4138317;28;20231;-77
2023/03/19 03:12:14;;;;;;;14.53;7.20;;;10.30;99.90;;;;;;4141284;28;20652;-76
2023/03/19 03:14:21;;;;;;;11.83;7.00;;;10.30;99.90;;;;;;4141634;28;20238;-76
2023/03/19 03:16:26;;;;;;;12.97;7.00;;;10.30;99.90;;;;;;4137899;28;20213;-77
2023/03/19 03:18:28;;;;;;;12.87;7.20;;;10.30;99.90;;;;;;4137069;28;20223;-75
2023/03/19 03:20:30;;;;;;;12.97;7.03;;;10.30;99.90;;;;;;4138058;28;20262;-75
2023/03/19 03:22:32;;;;;;;12.83;6.53;;;10.30;99.90;;;;;;4140540;28;20222;-75
2023/03/19 03:24:38;;;;;;;13.27;7.60;;;10.20;99.90;;;;;;4135246;28;20281;-75
2023/03/19 03:26:43;;;;;;;11.30;6.33;;;10.20;99.90;;;;;;4150485;28;20268;-77
2023/03/19 03:28:46;;;;;;;15.73;7.67;;;10.30;99.90;;;;;;4139000;28;20208;-76
2023/03/19 03:30:48;;;;;;;12.90;7.33;;;10.20;99.90;;;;;;4137032;28;20234;-75
2023/03/19 03:32:51;;;;;;;13.03;7.07;;;10.20;99.90;;;;;;4141249;28;20226;-76
2023/03/19 03:34:53;;;;;;;13.90;7.93;;;10.20;99.90;;;;;;4136357;28;20216;-76
2023/03/19 03:36:55;;;;;;;13.43;7.40;;;10.20;99.90;;;;;;4141050;28;20215;-76
2023/03/19 03:38:57;;;;;;;11.80;7.23;;;10.20;99.90;;;;;;4139076;28;20214;-77
2023/03/19 03:40:59;;;;;;;16.63;7.63;;;10.20;99.90;;;;;;4136593;28;20262;-76
2023/03/19 03:43:01;;;;;;;11.80;7.03;;;10.20;99.90;;;;;;4138377;28;20213;-77
2023/03/19 03:45:04;;;;;;;11.57;6.63;;;10.20;99.90;;;;;;4138671;28;20234;-76
2023/03/19 03:47:06;;;;;;;11.33;6.33;;;10.20;99.90;;;;;;4139479;28;20285;-76
2023/03/19 03:49:09;;;;;;;13.90;6.77;;;10.20;99.90;;;;;;4138393;28;20208;-77
2023/03/19 03:51:11;;;;;;;13.43;7.20;;;10.20;99.90;;;;;;4137802;28;20231;-76
2023/03/19 03:53:14;;;;;;;11.77;7.03;;;10.20;99.90;;;;;;4137916;28;20223;-76
2023/03/19 03:55:16;;;;;;;12.97;7.20;;;10.20;99.90;;;;;;4137236;28;20234;-76
2023/03/19 03:57:18;;;;;;;14.60;7.70;;;10.20;99.90;;;;;;4137340;28;20266;-76
2023/03/19 03:59:23;;;;;;;13.67;7.63;;;10.20;99.90;;;;;;4137563;28;20955;-77
2023/03/19 04:01:27;;;;;;;14.00;7.73;;;10.20;99.90;;;;;;4137905;28;20230;-74
2023/03/19 04:03:28;;;;;;;15.67;7.67;;;10.20;99.90;;;;;;4136536;28;20210;-77
2023/03/19 04:05:33;;;;;;;12.40;6.90;;;10.20;99.90;;;;;;4138414;28;20257;-76
2023/03/19 04:07:37;;;;;;;11.57;6.83;;;10.20;99.90;;;;;;4133234;28;20240;-76
2023/03/19 04:09:39;;;;;;;13.17;7.33;;;10.20;99.90;;;;;;4138874;28;20670;-76
2023/03/19 04:11:41;;;;;;;13.40;7.00;;;10.20;99.90;;;;;;4134612;28;20740;-75
2023/03/19 04:13:43;;;;;;;12.33;7.03;;;10.20;99.90;;;;;;4134956;28;20246;-77
2023/03/19 04:15:45;;;;;;;13.80;7.30;;;10.20;99.90;;;;;;4136026;28;20749;-75
2023/03/19 04:17:47;;;;;;;14.83;6.97;;;10.20;99.90;;;;;;4140362;28;20647;-75
2023/03/19 04:19:49;;;;;;;14.00;7.07;;;10.20;99.90;;;;;;4135164;28;20211;-76
2023/03/19 04:21:53;;;;;;;12.37;6.70;;;10.50;99.90;;;;;;4137794;28;20317;-73
2023/03/19 04:23:55;;;;;;;15.20;7.20;;;10.20;99.90;;;;;;4137190;28;20795;-76
2023/03/19 04:25:59;;;;;;;10.87;6.07;;;10.20;99.90;;;;;;4138020;28;20245;-77
2023/03/19 04:28:02;;;;;;;11.73;6.20;;;10.20;99.90;;;;;;4134886;28;20219;-77
2023/03/19 04:30:05;;;;;;;14.27;6.70;;;10.10;99.90;;;;;;4137677;28;20323;-77
2023/03/19 04:32:07;;;;;;;16.53;7.73;;;10.20;99.90;;;;;;4135012;28;21006;-77
2023/03/19 04:34:12;;;;;;;12.87;7.37;;;10.20;99.90;;;;;;4140562;28;20230;-76
2023/03/19 04:36:14;;;;;;;13.23;6.93;;;10.10;99.90;;;;;;4137399;28;20681;-76
2023/03/19 04:38:17;;;;;;;14.57;7.80;;;10.10;99.90;;;;;;4137744;28;20229;-75
2023/03/19 04:40:19;;;;;;;12.70;7.30;;;10.10;99.90;;;;;;4140618;28;20203;-76
2023/03/19 04:42:22;;;;;;;15.37;7.03;;;10.10;99.90;;;;;;4137589;28;20301;-77
2023/03/19 04:44:24;;;;;;;14.10;7.17;;;10.10;99.90;;;;;;4134139;28;20924;-76
2023/03/19 04:46:25;;;;;;;12.43;6.67;;;10.00;99.90;;;;;;4136965;28;20215;-76
2023/03/19 04:48:27;;;;;;;16.37;7.40;;;10.00;99.90;;;;;;4135569;28;20208;-74
2023/03/19 04:50:30;;;;;;;15.03;7.30;;;9.90;99.90;;;;;;4137373;28;20309;-77
2023/03/19 04:52:32;;;;;;;14.07;7.20;;;9.90;99.90;;;;;;4134701;28;20764;-77
2023/03/19 04:54:35;;;;;;;12.17;7.20;;;9.80;99.90;;;;;;4140418;28;20314;-77
2023/03/19 04:56:37;;;;;;;15.40;7.70;;;9.80;99.90;;;;;;4139954;28;20219;-75
2023/03/19 04:58:39;;;;;;;11.77;7.00;;;9.80;99.90;;;;;;4136801;28;20312;-77
2023/03/19 05:00:41;;;;;;;13.83;7.53;;;9.70;99.90;;;;;;4149739;28;20253;-77
2023/03/19 05:02:43;;;;;;;15.10;8.17;;;9.70;99.90;;;;;;4135459;28;20322;-75
2023/03/19 05:04:45;;;;;;;13.77;7.67;;;9.60;99.90;;;;;;4137830;28;20218;-76
2023/03/19 05:06:47;;;;;;;12.93;7.33;;;9.60;99.90;;;;;;4136462;28;20236;-75
2023/03/19 05:08:49;;;;;;;14.77;7.50;;;9.60;99.90;;;;;;4133224;28;20773;-76
2023/03/19 05:10:52;;;;;;;13.57;7.50;;;9.60;99.90;;;;;;4136028;28;20334;-77
2023/03/19 05:12:54;;;;;;;13.17;6.77;;;9.50;99.90;;;;;;4136035;28;20312;-75
2023/03/19 05:14:56;;;;;;;11.83;6.70;;;9.60;99.90;;;;;;4139620;28;20298;-77
2023/03/19 05:16:58;;;;;;;13.20;6.87;;;9.50;99.90;;;;;;4137128;28;20214;-77
2023/03/19 05:19:00;;;;;;;13.23;7.13;;;9.40;99.90;;;;;;4137686;28;20292;-77
2023/03/19 05:21:03;;;;;;;14.70;7.30;;;9.40;99.90;;;;;;4138024;28;20284;-77
2023/03/19 05:23:06;;;;;;;14.77;7.40;;;9.40;99.90;;;;;;4136262;28;20207;-75
2023/03/19 05:25:08;;;;;;;17.83;7.63;;;9.30;99.90;;;;;;4138833;28;20743;-76
2023/03/19 05:27:12;;;;;;;15.00;7.47;;;9.30;99.90;;;;;;4138638;28;20210;-76
2023/03/19 05:29:14;;;;;;;14.27;7.70;;;9.30;99.90;;;;;;4136897;28;20293;-76
2023/03/19 05:31:16;;;;;;;12.43;6.80;;;9.20;99.90;;;;;;4136754;28;20236;-76
2023/03/19 05:33:18;;;;;;;14.03;7.13;;;9.20;99.90;;;;;;4136467;28;20220;-76
2023/03/19 05:35:20;;;;;;;17.43;7.93;;;9.20;99.90;;;;;;4136221;28;20215;-76
2023/03/19 05:37:22;;;;;;;21.63;8.50;;;9.20;99.90;;;;;;4138176;28;20218;-76
2023/03/19 05:39:24;;;;;;;16.13;8.43;;;9.20;99.90;;;;;;4136793;28;20688;-77
2023/03/19 05:41:29;;;;;;;16.33;7.93;;;9.20;99.90;;;;;;4136432;28;20237;-77
2023/03/19 05:43:37;;;;;;;17.53;7.83;;;9.20;99.90;;;;;;4138898;28;20211;-76
2023/03/19 05:45:39;;;;;;;16.97;8.00;;;9.10;99.90;;;;;;4135574;28;20216;-76
2023/03/19 05:47:41;;;;;;;16.63;8.53;;;9.10;99.90;;;;;;4135037;28;20932;-77
2023/03/19 05:49:43;;;;;;;21.40;10.30;;;9.10;99.90;;;;;;4135695;28;20222;-76
2023/03/19 05:51:44;;;;;;;17.10;10.07;;;9.10;99.90;;;;;;4138720;28;20246;-77
2023/03/19 05:53:49;;;;;;;20.50;9.83;;;9.40;99.90;;;;;;4141822;28;20232;-77
2023/03/19 05:55:51;;;;;;;18.43;9.00;;;9.10;99.90;;;;;;4140351;28;20213;-77
2023/03/19 05:57:54;;;;;;;18.67;8.50;;;9.10;99.90;;;;;;4136322;28;20212;-76
2023/03/19 05:59:57;;;;;;;15.43;8.03;;;9.10;99.90;;;;;;4136311;28;20213;-77
2023/03/19 06:01:59;;;;;;;17.63;8.30;;;9.10;99.90;;;;;;4152078;28;20315;-77
2023/03/19 06:04:01;;;;;;;14.40;7.63;;;9.10;99.90;;;;;;4140437;28;20195;-77
2023/03/19 06:06:03;;;;;;;14.43;7.70;;;9.10;99.90;;;;;;4138436;28;20221;-75
2023/03/19 06:08:05;;;;;;;13.83;7.23;;;9.10;99.90;;;;;;4139279;28;20302;-77
2023/03/19 06:10:09;;;;;;;14.93;7.93;;;9.10;99.90;;;;;;4139973;28;20292;-76
2023/03/19 06:12:11;;;;;;;15.60;8.23;;;9.00;99.90;;;;;;4139870;28;20367;-76
2023/03/19 06:14:13;;;;;;;15.13;7.83;;;9.10;99.90;;;;;;4137412;28;20334;-75
2023/03/19 06:16:16;;;;;;;19.00;8.07;;;9.10;99.90;;;;;;4141614;28;20847;-73
2023/03/19 06:18:18;;;;;;;17.00;7.90;;;9.10;99.90;;;;;;4140392;28;20281;-76
2023/03/19 06:20:20;;;;;;;15.53;7.77;;;9.10;99.90;;;;;;4140903;28;20238;-74
2023/03/19 06:22:22;;;;;;;15.63;8.17;;;9.10;99.90;;;;;;4138171;28;20626;-76
2023/03/19 06:24:24;;;;;;;16.23;8.43;;;9.10;99.90;;;;;;4140860;28;20215;-76
2023/03/19 06:26:26;;;;;;;15.60;8.23;;;9.10;99.90;;;;;;4138561;28;20644;-76
2023/03/19 06:28:28;;;;;;;15.70;8.03;;;9.10;99.90;;;;;;4138933;28;20937;-76
2023/03/19 06:30:30;;;;;;;13.13;7.60;;;9.10;99.90;;;;;;4136554;28;20234;-77
2023/03/19 06:32:37;;;;;;;14.00;7.43;;;9.20;99.90;;;;;;4138575;28;20201;-77
2023/03/19 06:34:39;;;;;;;13.97;7.57;;;9.20;99.90;;;;;;4154121;28;20282;-76
2023/03/19 06:36:40;;;;;;;14.43;7.27;;;9.20;99.90;;;;;;4141216;28;20297;-77
2023/03/19 06:38:42;;;;;;;12.60;6.97;;;9.20;99.90;;;;;;4141598;28;20295;-77
2023/03/19 06:40:44;;;;;;;13.67;7.27;;;9.20;99.90;;;;;;4139180;28;20262;-76
2023/03/19 06:42:46;;;;;;;15.83;7.67;;;9.30;99.90;;;;;;4140769;28;20206;-77
2023/03/19 06:44:49;;;;;;;14.50;7.73;;;9.30;99.90;;;;;;4138281;28;20204;-77
2023/03/19 06:46:51;;;;;;;15.97;7.80;;;9.30;99.90;;;;;;4138392;28;20257;-77
2023/03/19 06:48:54;;;;;;;13.03;7.03;;;9.30;99.90;;;;;;4137921;28;20210;-76
2023/03/19 06:50:56;;;;;;;16.77;7.20;;;9.40;99.90;;;;;;4138338;28;20739;-76
2023/03/19 06:52:58;;;;;;;11.30;6.97;;;9.50;99.90;;;;;;4139112;28;20216;-75
2023/03/19 06:55:00;;;;;;;18.20;7.33;;;9.50;99.90;;;;;;4136716;28;20257;-76
2023/03/19 06:57:04;;;;;;;18.93;7.80;;;9.50;99.90;;;;;;4134744;28;20219;-76
2023/03/19 06:59:06;;;;;;;14.07;7.40;;;9.50;99.90;;;;;;4136551;28;20254;-76
2023/03/19 07:01:08;;;;;;;14.17;7.80;;;9.50;99.90;;;;;;4135134;28;20234;-75
2023/03/19 07:03:11;;;;;;;13.83;7.50;;;9.60;99.90;;;;;;4136228;28;20242;-77
2023/03/19 07:05:14;;;;;;;15.67;8.17;;;9.60;99.90;;;;;;4138019;28;20261;-76
2023/03/19 07:07:16;;;;;;;23.33;10.17;;;9.60;99.90;;;;;;4136634;28;20210;-77
2023/03/19 07:09:18;;;;;;;20.00;8.90;;;9.70;99.90;;;;;;4139826;28;20308;-77
2023/03/19 07:11:20;;;;;;;13.80;7.40;;;9.70;99.90;;;;;;4138121;28;20338;-77
2023/03/19 07:13:22;;;;;;;12.93;7.10;;;9.70;99.90;;;;;;4137222;28;20218;-76
2023/03/19 07:15:24;;;;;;;12.20;6.80;;;9.70;99.90;;;;;;4153610;28;20597;-76
2023/03/19 07:17:26;;;;;;;16.20;8.30;;;9.70;99.90;;;;;;4149040;28;20207;-73
2023/03/19 07:19:28;;;;;;;14.60;8.40;;;9.80;99.90;;;;;;4145596;28;20641;-73
2023/03/19 07:21:32;;;;;;;12.20;6.83;;;9.80;99.90;;;;;;4144832;28;20313;-73
2023/03/19 07:23:34;;;;;;;15.63;7.27;;;9.80;99.90;;;;;;4144714;28;20620;-73
2023/03/19 07:25:36;;;;;;;13.77;7.00;;;9.90;99.90;;;;;;4144991;28;20195;-73
2023/03/19 07:27:38;;;;;;;15.73;7.20;;;9.90;99.90;;;;;;4144536;28;20215;-74
2023/03/19 07:29:40;;;;;;;16.77;7.40;;;9.90;99.90;;;;;;4142489;28;20198;-73
2023/03/19 07:31:41;;;;;;;12.47;6.83;;;10.00;99.90;;;;;;4143394;28;20318;-72
2023/03/19 07:33:43;;;;;;;12.50;7.10;;;10.00;99.90;;;;;;4143643;28;20213;-73
2023/03/19 07:35:45;;;;;;;16.37;7.47;;;10.10;99.90;;;;;;4145268;28;20231;-73
2023/03/19 07:37:49;;;;;;;12.93;7.00;;;10.20;99.90;;;;;;4141844;28;20210;-75
2023/03/19 07:39:53;;;;;;;13.60;6.73;;;10.30;99.90;;;;;;4152913;28;20227;-72
2023/03/19 07:41:55;;;;;;;13.90;6.67;;;10.40;99.90;;;;;;4140582;28;20251;-75
2023/03/19 07:43:57;;;;;;;12.23;6.87;;;10.40;99.90;;;;;;4139642;28;20203;-73
2023/03/19 07:46:01;;;;;;;15.07;7.47;;;10.40;99.90;;;;;;4137254;28;20246;-73
2023/03/19 07:48:04;;;;;;;12.93;7.00;;;10.50;99.90;;;;;;4138020;28;21119;-73
2023/03/19 07:50:07;;;;;;;12.67;7.20;;;10.50;99.90;;;;;;4142511;28;20670;-75
2023/03/19 07:52:13;;;;;;;12.90;7.07;;;10.60;99.90;;;;;;4136186;28;20225;-73
2023/03/19 07:54:16;;;;;;;14.07;6.83;;;10.60;99.90;;;;;;4132960;28;20239;-74
2023/03/19 07:56:18;;;;;;;13.23;7.20;;;10.70;99.90;;;;;;4101142;28;1129526;-73
2023/03/19 07:58:20;;;;;;;13.53;7.03;;;10.70;99.90;;;;;;4139349;28;20639;-76
2023/03/19 08:00:22;;;;;;;12.03;6.90;;;10.80;99.90;;;;;;4139952;28;20219;-74
2023/03/19 08:02:25;;;;;;;12.53;6.47;;;10.80;99.90;;;;;;4141790;28;20234;-75
2023/03/19 08:04:27;;;;;;;11.60;6.27;;;10.90;99.90;;;;;;4144684;28;20230;-73
2023/03/19 08:06:28;;;;;;;12.30;6.60;;;10.90;99.90;;;;;;4141221;28;20207;-73
2023/03/19 08:08:33;;;;;;;14.03;7.23;;;11.00;99.90;;;;;;4141251;28;20212;-75
2023/03/19 08:10:37;;;;;;;18.03;7.63;;;11.00;99.90;;;;;;4136782;28;20240;-76
2023/03/19 08:12:40;;;;;;;13.67;6.77;;;11.10;99.90;;;;;;4137038;28;20290;-76
2023/03/19 08:14:42;;;;;;;11.23;6.67;;;11.10;99.90;;;;;;4138539;28;20717;-73
2023/03/19 08:16:44;;;;;;;10.07;5.90;;;11.20;99.90;;;;;;4141769;28;20251;-73
2023/03/19 08:18:45;;;;;;;11.57;6.20;;;11.20;99.90;;;;;;4138344;28;20219;-73
2023/03/19 08:20:48;;;;;;;12.83;6.90;;;11.40;99.90;;;;;;4140989;28;20239;-72
2023/03/19 08:22:50;;;;;;;12.53;6.17;;;11.40;99.90;;;;;;4142252;28;20227;-73
2023/03/19 08:24:52;;;;;;;11.60;6.30;;;11.50;99.90;;;;;;4143654;28;20289;-73
2023/03/19 08:26:56;;;;;;;9.30;5.60;;;11.60;99.90;;;;;;4140802;28;20247;-74
2023/03/19 08:28:58;;;;;;;13.57;6.87;;;11.60;99.90;;;;;;4136332;28;20251;-72
2023/03/19 08:31:06;;;;;;;12.70;6.17;;;11.70;99.90;;;;;;4140430;28;20252;-73
2023/03/19 08:33:08;;;;;;;11.23;5.60;;;11.90;99.90;;;;;;4137579;28;20227;-73
2023/03/19 08:35:14;;;;;;;12.37;5.83;;;12.00;99.90;;;;;;4137838;28;20229;-72
2023/03/19 08:37:18;;;;;;;12.87;6.10;;;12.10;99.90;;;;;;4139897;28;20259;-73
2023/03/19 08:39:20;;;;;;;13.13;6.00;;;12.20;99.90;;;;;;4135860;28;20286;-73
2023/03/19 08:41:22;;;;;;;11.60;5.97;;;12.30;99.90;;;;;;4139230;28;20228;-73
2023/03/19 08:43:25;;;;;;;12.37;5.97;;;12.40;99.90;;;;;;4139219;28;20243;-73
2023/03/19 08:45:27;;;;;;;12.57;6.57;;;12.50;99.90;;;;;;4135608;28;20213;-75
2023/03/19 08:47:30;;;;;;;10.70;5.87;;;12.60;99.90;;;;;;4137778;28;20659;-75
2023/03/19 08:49:32;;;;;;;8.83;5.43;;;12.70;99.90;;;;;;4139992;28;20974;-73
2023/03/19 08:51:34;;;;;;;11.60;6.23;;;12.80;99.90;;;;;;4141516;28;21049;-73
2023/03/19 08:53:36;;;;;;;14.30;6.33;;;12.90;99.90;;;;;;4139475;28;20211;-74
2023/03/19 08:55:38;;;;;;;10.93;6.40;;;13.00;99.90;;;;;;4139233;28;20221;-73
2023/03/19 08:57:40;;;;;;;10.30;5.73;;;13.10;99.90;;;;;;4143414;28;20232;-73
2023/03/19 08:59:44;;;;;;;11.70;6.93;;;13.20;99.90;;;;;;4141194;28;20295;-73
2023/03/19 09:01:46;;;;;;;12.70;6.13;;;13.30;99.90;;;;;;4141415;28;20233;-75
2023/03/19 09:03:48;;;;;;;11.57;6.07;;;13.40;99.90;;;;;;4138314;28;20204;-74
2023/03/19 09:05:50;;;;;;;10.17;5.80;;;13.40;99.90;;;;;;4135764;28;20201;-74
2023/03/19 09:07:55;;;;;;;8.67;5.37;;;13.50;99.90;;;;;;4139086;28;20213;-75
2023/03/19 09:09:57;;;;;;;10.57;5.17;;;13.60;99.90;;;;;;4139653;28;20627;-77
2023/03/19 09:11:58;;;;;;;10.80;5.57;;;13.60;99.90;;;;;;4137424;28;20256;-75
2023/03/19 09:14:00;;;;;;;9.70;5.90;;;13.70;99.90;;;;;;4131480;28;20210;-75
2023/03/19 09:16:04;;;;;;;8.30;4.90;;;13.80;99.90;;;;;;4134240;28;20227;-76
2023/03/19 09:18:06;;;;;;;11.97;6.60;;;13.80;99.90;;;;;;4134388;28;20237;-76
2023/03/19 09:20:10;;;;;;;15.20;7.90;;;13.90;99.90;;;;;;4133866;28;20208;-76
2023/03/19 09:22:18;;;;;;;14.00;6.30;;;14.00;99.90;;;;;;4135273;28;20208;-76
2023/03/19 09:24:20;;;;;;;12.80;6.17;;;14.00;99.90;;;;;;4135881;28;21059;-77
2023/03/19 09:26:22;;;;;;;12.83;6.63;;;14.10;99.90;;;;;;4135622;28;20693;-73
2023/03/19 09:28:24;;;;;;;11.67;6.60;;;14.20;99.90;;;;;;4136807;28;20218;-74
2023/03/19 09:30:27;;;;;;;12.07;6.30;;;14.20;99.90;;;;;;4137770;28;20212;-73
2023/03/19 09:32:31;;;;;;;11.87;5.77;;;14.30;99.90;;;;;;4131188;28;20208;-74
2023/03/19 09:34:33;;;;;;;8.77;5.40;;;14.30;99.90;;;;;;4135410;28;20836;-73
2023/03/19 09:36:35;;;;;;;9.73;5.57;;;14.40;99.90;;;;;;4133376;28;20203;-73
2023/03/19 09:38:38;;;;;;;10.63;5.97;;;14.50;99.90;;;;;;4139795;28;20211;-75
2023/03/19 09:40:43;;;;;;;10.00;5.50;;;14.50;99.90;;;;;;4134168;28;20235;-72
2023/03/19 09:42:55;;;;;;;12.20;6.27;;;14.60;99.90;;;;;;4134080;28;20769;-75
2023/03/19 09:44:57;;;;;;;13.20;6.43;;;14.60;99.90;;;;;;4134584;28;20262;-73
2023/03/19 09:47:10;;;;;;;10.17;5.67;;;14.70;99.90;;;;;;4153277;28;20239;-75
2023/03/19 09:49:20;;;;;;;10.07;5.07;;;14.70;99.90;;;;;;4150234;28;20199;-73
2023/03/19 09:51:29;;;;;;;9.07;5.50;;;14.80;99.90;;;;;;4136694;28;20231;-72
2023/03/19 09:53:39;;;;;;;8.50;4.93;;;14.90;99.90;;;;;;4142678;28;20215;-72
2023/03/19 09:55:45;;;;;;;10.53;4.67;;;15.00;99.90;;;;;;4138364;28;20215;-72
2023/03/19 09:57:48;;;;;;;10.43;4.50;;;15.00;99.90;;;;;;4138343;28;20208;-72
2023/03/19 09:59:52;;;;;;;11.20;5.50;;;15.10;99.90;;;;;;4137655;28;20721;-74
2023/03/19 10:02:01;;;;;;;18.43;9.43;;;15.20;99.90;;;;;;4132631;28;20252;-73
2023/03/19 10:04:19;;;;;;;17.80;8.00;;;15.30;99.90;;;;;;4133432;28;20247;-74
2023/03/19 10:06:28;;;;;;;12.90;6.30;;;15.30;99.90;;;;;;4134713;28;20220;-74
2023/03/19 10:09:09;;;;;;;12.17;5.43;;;15.40;99.90;;;;;;4135615;28;20262;-73
2023/03/19 10:11:32;;;;;;;9.43;5.20;;;15.50;99.90;;;;;;4100811;28;20744;-72
2023/03/19 10:13:46;;;;;;;10.07;4.67;;;15.60;99.90;;;;;;4137467;28;20629;-74
2023/03/19 10:15:50;;;;;;;9.10;4.53;;;15.60;99.90;;;;;;4135580;28;20228;-76
2023/03/19 10:17:58;;;;;;;7.47;4.50;;;15.70;99.90;;;;;;4138268;28;20256;-75
2023/03/19 10:20:07;;;;;;;7.83;4.53;;;15.80;99.90;;;;;;4141720;28;20623;-71
2023/03/19 10:22:15;;;;;;;9.57;4.23;;;15.90;99.90;;;;;;4136882;28;20228;-76
2023/03/19 10:24:22;;;;;;;11.50;4.90;;;16.00;99.90;;;;;;4141561;28;20217;-74
2023/03/19 10:26:30;;;;;;;5.93;3.73;;;16.00;99.90;;;;;;4134098;28;20207;-77
2023/03/19 10:28:32;;;;;;;10.33;4.70;;;16.10;99.90;;;;;;4136219;28;20220;-75
2023/03/19 10:30:35;;;;;;;10.63;4.80;;;16.10;99.90;;;;;;4136130;28;20310;-74
2023/03/19 10:32:41;;;;;;;8.00;4.60;;;16.20;99.90;;;;;;4133762;28;20214;-74
2023/03/19 10:34:44;;;;;;;9.13;4.40;;;16.20;99.90;;;;;;4136854;28;20201;-75
2023/03/19 10:37:00;;;;;;;7.13;4.20;;;16.30;99.90;;;;;;4137103;28;20207;-73